Time;durP1;ratioP1;P1;durP2;ratioP2;P2;SDS_P1;SDS_P2;PMS_P1;PMS_P2;Temp;Humidity;BMP_temperature;BMP_pressure;BME280_temperature;BME280_humidity;BME280_pressure;Samples;Min_cycle;Max_cycle;Signal;HPM_P1;HPM_P2
2021/08/28 00:01:19;;;;;;;;;;;22.60;65.30;;;;;;5062676;27;83448;-48
2021/08/28 00:03:44;;;;;;;;;;;22.50;65.20;;;;;;5062031;27;82091;-48
2021/08/28 00:06:10;;;;;;;;;;;22.50;65.20;;;;;;5061869;27;83063;-49
2021/08/28 00:08:36;;;;;;;;;;;22.50;65.30;;;;;;5062179;27;84548;-48
2021/08/28 00:11:01;;;;;;;;;;;22.50;65.30;;;;;;5065373;27;82106;-49
2021/08/28 00:13:27;;;;;;;;;;;22.50;65.40;;;;;;5061616;27;83096;-48
2021/08/28 00:15:52;;;;;;;;;;;22.50;65.90;;;;;;5061137;27;82156;-49
2021/08/28 00:18:18;;;;;;;;;;;22.50;65.40;;;;;;5060659;27;82107;-48
2021/08/28 00:20:43;;;;;;;;;;;22.50;65.30;;;;;;5061372;27;84412;-48
2021/08/28 00:23:09;;;;;;;;;;;22.40;65.30;;;;;;5063210;27;81372;-48
2021/08/28 00:25:35;;;;;;;;;;;22.40;65.30;;;;;;5063357;27;82226;-48
2021/08/28 00:28:02;;;;;;;;;;;22.40;65.20;;;;;;5061183;27;82990;-48
2021/08/28 00:30:28;;;;;;;;;;;22.40;65.30;;;;;;5063572;27;83306;-49
2021/08/28 00:32:53;;;;;;;;;;;22.40;65.20;;;;;;5065410;27;82910;-52
2021/08/28 00:35:19;;;;;;;;;;;22.40;65.20;;;;;;5064771;27;83505;-48
2021/08/28 00:37:44;;;;;;;;;;;22.40;65.20;;;;;;5062955;27;83503;-49
2021/08/28 00:40:10;;;;;;;;;;;22.40;65.20;;;;;;5059711;27;83060;-48
2021/08/28 00:42:46;;;;;;;;;;;22.40;65.30;;;;;;5059914;27;82129;-49
2021/08/28 00:45:12;;;;;;;;;;;22.40;65.30;;;;;;5061818;27;83825;-48
2021/08/28 00:47:37;;;;;;;;;;;22.40;65.30;;;;;;5065250;27;81478;-48
2021/08/28 00:50:03;;;;;;;;;;;22.40;65.30;;;;;;5064497;27;82084;-48
2021/08/28 00:52:28;;;;;;;;;;;22.30;65.30;;;;;;5064312;27;84702;-49
2021/08/28 00:54:54;;;;;;;;;;;22.30;65.20;;;;;;5064963;27;83887;-49
2021/08/28 00:57:21;;;;;;;;;;;22.30;65.20;;;;;;5059644;27;85294;-48
2021/08/28 00:59:47;;;;;;;;;;;22.30;65.20;;;;;;5061909;27;84513;-49
2021/08/28 01:02:13;;;;;;;;;;;22.30;65.20;;;;;;5061737;27;82932;-48
2021/08/28 01:04:51;;;;;;;;;;;22.30;65.20;;;;;;5063827;27;84018;-48
2021/08/28 01:07:22;;;;;;;;;;;22.30;65.30;;;;;;5065703;27;84177;-49
2021/08/28 01:09:50;;;;;;;;;;;22.30;65.20;;;;;;5067861;27;82928;-48
2021/08/28 01:12:20;;;;;;;;;;;22.20;65.30;;;;;;5065679;27;82539;-49
2021/08/28 01:14:49;;;;;;;;;;;22.20;65.20;;;;;;5066589;27;82792;-48
2021/08/28 01:17:15;;;;;;;;;;;22.30;65.20;;;;;;5068028;27;82690;-49
2021/08/28 01:20:03;;;;;;;;;;;22.20;65.20;;;;;;5062351;27;85342;-48
2021/08/28 01:22:29;;;;;;;;;;;22.20;65.10;;;;;;5067974;27;82134;-49
2021/08/28 01:24:56;;;;;;;;;;;22.10;65.20;;;;;;5067202;27;83953;-48
2021/08/28 01:27:29;;;;;;;;;;;22.20;65.30;;;;;;5066547;27;82963;-48
2021/08/28 01:29:55;;;;;;;;;;;22.10;65.20;;;;;;5064423;27;82127;-48
2021/08/28 01:32:22;;;;;;;;;;;22.10;65.30;;;;;;5064692;27;84413;-48
2021/08/28 01:34:48;;;;;;;;;;;22.10;65.30;;;;;;5063340;27;84758;-48
2021/08/28 01:37:15;;;;;;;;;;;22.10;65.10;;;;;;5064007;27;81861;-48
2021/08/28 01:39:41;;;;;;;;;;;22.10;65.20;;;;;;5067117;27;83035;-47
2021/08/28 01:42:07;;;;;;;;;;;22.10;65.10;;;;;;5065297;27;83766;-48
2021/08/28 01:44:33;;;;;;;;;;;22.10;65.30;;;;;;5063286;27;84426;-48
2021/08/28 01:46:59;;;;;;;;;;;22.10;65.30;;;;;;5065499;27;83639;-49
2021/08/28 01:49:25;;;;;;;;;;;22.10;65.20;;;;;;5063272;27;83697;-48
2021/08/28 01:51:51;;;;;;;;;;;22.10;65.10;;;;;;5062248;27;82813;-49
2021/08/28 01:54:17;;;;;;;;;;;22.00;65.10;;;;;;5067128;27;82864;-49
2021/08/28 01:56:43;;;;;;;;;;;22.00;65.10;;;;;;5066257;27;82916;-49
2021/08/28 01:59:08;;;;;;;;;;;22.00;65.00;;;;;;5068507;27;83556;-48
2021/08/28 02:01:34;;;;;;;;;;;22.00;65.10;;;;;;5062986;27;83016;-48
2021/08/28 02:03:59;;;;;;;;;;;22.00;65.10;;;;;;5062673;27;83955;-48
2021/08/28 02:06:38;;;;;;;;;;;22.00;65.10;;;;;;5062871;27;83134;-48
2021/08/28 02:09:09;;;;;;;;;;;21.90;65.10;;;;;;5065604;27;83062;-48
2021/08/28 02:11:45;;;;;;;;;;;22.00;65.10;;;;;;5065673;27;83508;-49
2021/08/28 02:14:14;;;;;;;;;;;22.00;65.20;;;;;;5063703;27;83107;-48
2021/08/28 02:16:41;;;;;;;;;;;21.90;65.10;;;;;;5066295;27;82796;-48
2021/08/28 02:19:09;;;;;;;;;;;21.90;65.10;;;;;;5066465;27;83721;-49
2021/08/28 02:21:36;;;;;;;;;;;21.90;65.10;;;;;;5066334;27;83198;-48
2021/08/28 02:24:03;;;;;;;;;;;21.90;65.10;;;;;;5062494;27;83835;-48
2021/08/28 02:26:49;;;;;;;;;;;21.90;65.00;;;;;;5066605;27;84265;-49
2021/08/28 02:29:30;;;;;;;;;;;21.80;65.00;;;;;;5064601;27;82592;-48
2021/08/28 02:31:58;;;;;;;;;;;21.90;65.10;;;;;;5064773;27;83798;-51
2021/08/28 02:34:25;;;;;;;;;;;21.80;65.00;;;;;;5062335;27;83071;-49
2021/08/28 02:36:52;;;;;;;;;;;21.80;65.00;;;;;;5062095;27;83070;-49
2021/08/28 02:39:18;;;;;;;;;;;21.80;64.90;;;;;;5066785;27;82095;-48
2021/08/28 02:41:44;;;;;;;;;;;21.80;65.00;;;;;;5065956;27;83024;-48
2021/08/28 02:44:11;;;;;;;;;;;21.80;65.00;;;;;;5067592;27;82071;-48
2021/08/28 02:46:36;;;;;;;;;;;21.80;65.00;;;;;;5063196;27;82940;-49
2021/08/28 02:49:03;;;;;;;;;;;21.80;65.10;;;;;;5064526;27;82133;-49
2021/08/28 02:51:29;;;;;;;;;;;21.80;65.00;;;;;;5064791;27;83581;-50
2021/08/28 02:53:55;;;;;;;;;;;21.80;65.00;;;;;;5064241;27;84596;-52
2021/08/28 02:56:22;;;;;;;;;;;21.80;65.00;;;;;;5063058;27;82119;-53
2021/08/28 02:58:48;;;;;;;;;;;21.80;65.00;;;;;;5062734;27;83926;-53
2021/08/28 03:01:14;;;;;;;;;;;21.70;64.90;;;;;;5065245;27;83641;-50
2021/08/28 03:03:40;;;;;;;;;;;21.70;65.00;;;;;;5063696;27;83713;-52
2021/08/28 03:06:06;;;;;;;;;;;21.70;65.20;;;;;;5067783;27;82378;-50
2021/08/28 03:08:33;;;;;;;;;;;21.70;65.20;;;;;;5064347;27;82666;-49
2021/08/28 03:10:59;;;;;;;;;;;21.70;65.20;;;;;;5065195;27;83809;-49
2021/08/28 03:13:25;;;;;;;;;;;21.70;65.10;;;;;;5063721;27;83138;-50
2021/08/28 03:15:51;;;;;;;;;;;21.70;65.10;;;;;;5064563;27;81332;-51
2021/08/28 03:18:18;;;;;;;;;;;21.60;65.10;;;;;;5063858;27;82131;-49
2021/08/28 03:20:46;;;;;;;;;;;21.60;65.10;;;;;;5061917;27;82651;-48
2021/08/28 03:23:12;;;;;;;;;;;21.60;65.00;;;;;;5065283;27;83028;-49
2021/08/28 03:25:39;;;;;;;;;;;21.60;65.00;;;;;;5062529;27;84485;-51
2021/08/28 03:28:05;;;;;;;;;;;21.60;65.00;;;;;;5065233;27;84002;-49
2021/08/28 03:30:30;;;;;;;;;;;21.60;65.10;;;;;;5061579;27;82209;-49
2021/08/28 03:32:56;;;;;;;;;;;21.60;65.10;;;;;;5060446;27;85024;-50
2021/08/28 03:35:24;;;;;;;;;;;21.60;65.30;;;;;;5063788;27;83367;-48
2021/08/28 03:37:50;;;;;;;;;;;21.60;65.10;;;;;;5062286;27;84195;-49
2021/08/28 03:40:17;;;;;;;;;;;21.50;65.10;;;;;;5061305;27;81770;-48
2021/08/28 03:42:42;;;;;;;;;;;21.60;65.10;;;;;;5065726;27;82088;-48
2021/08/28 03:45:08;;;;;;;;;;;21.50;65.10;;;;;;5063774;27;84087;-48
2021/08/28 03:47:35;;;;;;;;;;;21.50;65.10;;;;;;5064033;27;83564;-49
2021/08/28 03:50:00;;;;;;;;;;;21.50;65.00;;;;;;5066179;27;82138;-48
2021/08/28 03:52:26;;;;;;;;;;;21.50;65.00;;;;;;5063073;27;83932;-48
2021/08/28 03:54:51;;;;;;;;;;;21.50;65.10;;;;;;5064668;27;82214;-49
2021/08/28 03:57:17;;;;;;;;;;;21.50;65.20;;;;;;5065342;27;83564;-49
2021/08/28 03:59:42;;;;;;;;;;;21.50;65.20;;;;;;5064940;27;82687;-48
2021/08/28 04:02:08;;;;;;;;;;;21.50;65.10;;;;;;5064326;27;82105;-48
2021/08/28 04:04:33;;;;;;;;;;;21.50;65.10;;;;;;5065528;27;81688;-49
2021/08/28 04:06:59;;;;;;;;;;;21.40;65.10;;;;;;5064856;27;83336;-48
2021/08/28 04:09:24;;;;;;;;;;;21.40;65.00;;;;;;5067762;27;82074;-48
2021/08/28 04:11:50;;;;;;;;;;;21.40;65.10;;;;;;5063527;27;84233;-49
2021/08/28 04:14:16;;;;;;;;;;;21.40;65.10;;;;;;5063331;27;82106;-48
2021/08/28 04:16:41;;;;;;;;;;;21.40;65.00;;;;;;5062735;27;83026;-48
2021/08/28 04:19:07;;;;;;;;;;;21.40;65.00;;;;;;5061794;27;85006;-49
2021/08/28 04:21:32;;;;;;;;;;;21.40;65.10;;;;;;5063244;27;82079;-49
2021/08/28 04:23:58;;;;;;;;;;;21.40;65.00;;;;;;5064312;27;83000;-48
2021/08/28 04:26:23;;;;;;;;;;;21.40;65.00;;;;;;5063488;27;82666;-48
2021/08/28 04:28:49;;;;;;;;;;;21.40;65.00;;;;;;5063680;27;81373;-49
2021/08/28 04:31:14;;;;;;;;;;;21.30;65.00;;;;;;5064940;27;82108;-48
2021/08/28 04:33:40;;;;;;;;;;;21.30;65.00;;;;;;5061615;27;82135;-48
2021/08/28 04:36:05;;;;;;;;;;;21.30;65.00;;;;;;5061132;27;83123;-48
2021/08/28 04:38:31;;;;;;;;;;;21.30;65.00;;;;;;5061387;27;82912;-49
2021/08/28 04:40:57;;;;;;;;;;;21.30;65.10;;;;;;5059840;27;82163;-48
2021/08/28 04:43:22;;;;;;;;;;;21.30;65.00;;;;;;5060515;27;82518;-48
2021/08/28 04:45:48;;;;;;;;;;;21.30;65.00;;;;;;5059079;27;82735;-48
2021/08/28 04:48:15;;;;;;;;;;;21.30;65.00;;;;;;5063599;27;82377;-48
2021/08/28 04:50:40;;;;;;;;;;;21.30;65.00;;;;;;5060409;27;83459;-48
2021/08/28 04:53:06;;;;;;;;;;;21.30;65.10;;;;;;5062887;27;83859;-49
2021/08/28 04:55:31;;;;;;;;;;;21.20;65.00;;;;;;5060137;27;83741;-48
2021/08/28 04:57:57;;;;;;;;;;;21.20;65.00;;;;;;5060061;27;82994;-48
2021/08/28 05:00:22;;;;;;;;;;;21.20;65.00;;;;;;5059897;27;83152;-48
2021/08/28 05:02:48;;;;;;;;;;;21.20;64.90;;;;;;5061242;27;84779;-48
2021/08/28 05:05:13;;;;;;;;;;;21.30;65.00;;;;;;5062323;27;84068;-48
2021/08/28 05:07:39;;;;;;;;;;;21.20;64.90;;;;;;5062135;27;82089;-48
2021/08/28 05:10:05;;;;;;;;;;;21.20;65.00;;;;;;5062479;27;82122;-49
2021/08/28 05:12:30;;;;;;;;;;;21.20;65.00;;;;;;5061106;27;85375;-48
2021/08/28 05:14:56;;;;;;;;;;;21.20;65.00;;;;;;5064308;27;82109;-48
2021/08/28 05:17:21;;;;;;;;;;;21.20;64.90;;;;;;5062850;27;82907;-48
2021/08/28 05:19:47;;;;;;;;;;;21.20;65.00;;;;;;5062623;27;82093;-48
2021/08/28 05:22:13;;;;;;;;;;;21.20;64.90;;;;;;5063468;27;84088;-48
2021/08/28 05:24:38;;;;;;;;;;;21.20;64.80;;;;;;5062237;27;83572;-48
2021/08/28 05:27:04;;;;;;;;;;;21.20;65.00;;;;;;5063071;27;82178;-49
2021/08/28 05:29:30;;;;;;;;;;;21.20;65.00;;;;;;5062506;27;84011;-48
2021/08/28 05:31:55;;;;;;;;;;;21.20;65.00;;;;;;5061601;27;83075;-49
2021/08/28 05:34:21;;;;;;;;;;;21.20;64.90;;;;;;5062518;27;82108;-48
2021/08/28 05:36:46;;;;;;;;;;;21.20;64.90;;;;;;5066488;27;82742;-48
2021/08/28 05:39:12;;;;;;;;;;;21.10;65.00;;;;;;5062406;27;82866;-49
2021/08/28 05:41:37;;;;;;;;;;;21.10;65.00;;;;;;5064444;27;82936;-49
2021/08/28 05:44:03;;;;;;;;;;;21.10;65.00;;;;;;5063390;27;82550;-48
2021/08/28 05:46:29;;;;;;;;;;;21.10;65.10;;;;;;5063186;27;82861;-48
2021/08/28 05:48:54;;;;;;;;;;;21.10;64.90;;;;;;5060921;27;84172;-48
2021/08/28 05:51:20;;;;;;;;;;;21.10;64.80;;;;;;5063133;27;83479;-48
2021/08/28 05:53:45;;;;;;;;;;;21.20;64.90;;;;;;5064534;27;82097;-48
2021/08/28 05:56:11;;;;;;;;;;;21.20;64.80;;;;;;5066508;27;82073;-48
2021/08/28 05:58:36;;;;;;;;;;;21.20;64.90;;;;;;5065187;27;82198;-48
2021/08/28 06:01:02;;;;;;;;;;;21.10;65.00;;;;;;5066143;27;82065;-49
2021/08/28 06:03:28;;;;;;;;;;;21.20;64.90;;;;;;5065130;27;84712;-49
2021/08/28 06:05:53;;;;;;;;;;;21.10;64.90;;;;;;5065414;27;81379;-49
2021/08/28 06:08:19;;;;;;;;;;;21.20;65.00;;;;;;5065280;27;82127;-48
2021/08/28 06:10:44;;;;;;;;;;;21.20;64.90;;;;;;5065638;27;82771;-48
2021/08/28 06:13:10;;;;;;;;;;;21.20;64.90;;;;;;5065138;27;83016;-48
2021/08/28 06:15:36;;;;;;;;;;;21.20;64.80;;;;;;5067054;27;82841;-48
2021/08/28 06:18:01;;;;;;;;;;;21.20;65.00;;;;;;5068812;27;83619;-48
2021/08/28 06:20:27;;;;;;;;;;;21.20;64.90;;;;;;5065960;27;83711;-48
2021/08/28 06:22:52;;;;;;;;;;;21.20;64.90;;;;;;5062301;27;84847;-48
2021/08/28 06:25:18;;;;;;;;;;;21.20;64.80;;;;;;5065127;27;83654;-49
2021/08/28 06:27:43;;;;;;;;;;;21.20;65.00;;;;;;5062903;27;83906;-49
2021/08/28 06:30:09;;;;;;;;;;;21.20;64.80;;;;;;5062967;27;82188;-48
2021/08/28 06:32:35;;;;;;;;;;;21.10;64.90;;;;;;5062186;27;82123;-48
2021/08/28 06:35:00;;;;;;;;;;;21.10;65.00;;;;;;5061482;27;82274;-49
2021/08/28 06:37:26;;;;;;;;;;;21.10;65.00;;;;;;5062698;27;85192;-50
2021/08/28 06:39:51;;;;;;;;;;;21.10;64.90;;;;;;5069061;27;82053;-48
2021/08/28 06:42:17;;;;;;;;;;;21.10;64.90;;;;;;5065829;27;83695;-48
2021/08/28 06:44:42;;;;;;;;;;;21.20;64.90;;;;;;5064814;27;82056;-50
2021/08/28 06:47:09;;;;;;;;;;;21.20;64.80;;;;;;5064195;27;83883;-48
2021/08/28 06:49:34;;;;;;;;;;;21.20;65.00;;;;;;5063462;27;84575;-48
2021/08/28 06:52:00;;;;;;;;;;;21.10;65.10;;;;;;5063682;27;82120;-48
2021/08/28 06:54:25;;;;;;;;;;;21.10;65.10;;;;;;5065608;27;82087;-48
2021/08/28 06:56:51;;;;;;;;;;;21.10;65.10;;;;;;5065309;27;84676;-50
2021/08/28 06:59:16;;;;;;;;;;;21.10;65.00;;;;;;5064861;27;82193;-48
2021/08/28 07:01:42;;;;;;;;;;;21.10;65.10;;;;;;5066084;27;83317;-48
2021/08/28 07:04:07;;;;;;;;;;;21.10;64.90;;;;;;5063461;27;82242;-49
2021/08/28 07:06:33;;;;;;;;;;;21.10;65.00;;;;;;5064300;27;83171;-48
2021/08/28 07:08:59;;;;;;;;;;;21.20;65.00;;;;;;5064347;27;82808;-49
2021/08/28 07:11:24;;;;;;;;;;;21.20;65.00;;;;;;5064807;27;82115;-49
2021/08/28 07:13:50;;;;;;;;;;;21.10;65.00;;;;;;5064451;27;83033;-49
2021/08/28 07:16:15;;;;;;;;;;;21.10;65.10;;;;;;5064737;27;83175;-49
2021/08/28 07:18:41;;;;;;;;;;;21.10;65.20;;;;;;5064934;27;81346;-49
2021/08/28 07:21:06;;;;;;;;;;;21.10;65.20;;;;;;5063872;27;82113;-49
2021/08/28 07:23:32;;;;;;;;;;;21.20;65.10;;;;;;5067253;27;82967;-49
2021/08/28 07:25:57;;;;;;;;;;;21.20;65.00;;;;;;5065288;27;83094;-49
2021/08/28 07:28:23;;;;;;;;;;;21.10;65.10;;;;;;5064168;27;83731;-49
2021/08/28 07:30:49;;;;;;;;;;;21.10;65.00;;;;;;5062937;27;83167;-49
2021/08/28 07:33:14;;;;;;;;;;;21.10;65.00;;;;;;5064541;27;84078;-48
2021/08/28 07:35:40;;;;;;;;;;;21.10;65.10;;;;;;5061598;27;82139;-48
2021/08/28 07:38:05;;;;;;;;;;;21.10;65.10;;;;;;5061869;27;82971;-48
2021/08/28 07:40:31;;;;;;;;;;;21.10;65.10;;;;;;5061839;27;83714;-50
2021/08/28 07:42:58;;;;;;;;;;;21.10;65.10;;;;;;5061727;27;82901;-49
2021/08/28 07:45:24;;;;;;;;;;;21.10;65.10;;;;;;5068380;27;82066;-49
2021/08/28 07:47:50;;;;;;;;;;;21.10;65.20;;;;;;5064736;27;83040;-48
2021/08/28 07:50:16;;;;;;;;;;;21.20;65.20;;;;;;5063557;27;83148;-49
2021/08/28 07:52:42;;;;;;;;;;;21.10;65.00;;;;;;5062945;27;82431;-49
2021/08/28 07:55:09;;;;;;;;;;;21.10;65.00;;;;;;5060243;27;84359;-49
2021/08/28 07:57:35;;;;;;;;;;;21.20;65.10;;;;;;5063352;27;83177;-49
2021/08/28 08:00:00;;;;;;;;;;;21.10;65.00;;;;;;5060158;27;82154;-48
2021/08/28 08:02:26;;;;;;;;;;;21.20;65.10;;;;;;5063060;27;83303;-48
2021/08/28 08:04:52;;;;;;;;;;;21.20;65.10;;;;;;5064983;27;83039;-48
2021/08/28 08:07:17;;;;;;;;;;;21.20;65.20;;;;;;5065781;27;82415;-49
2021/08/28 08:09:43;;;;;;;;;;;21.10;65.10;;;;;;5064567;27;82377;-49
2021/08/28 08:12:08;;;;;;;;;;;21.20;65.20;;;;;;5063165;27;82464;-48
2021/08/28 08:14:34;;;;;;;;;;;21.20;65.20;;;;;;5062071;27;84860;-49
2021/08/28 08:17:00;;;;;;;;;;;21.20;65.10;;;;;;5061866;27;82059;-48
2021/08/28 08:19:25;;;;;;;;;;;21.20;65.30;;;;;;5059966;27;82533;-48
2021/08/28 08:21:51;;;;;;;;;;;21.20;65.20;;;;;;5060046;27;83365;-48
2021/08/28 08:24:16;;;;;;;;;;;21.10;65.20;;;;;;5060346;27;82999;-48
2021/08/28 08:26:42;;;;;;;;;;;21.20;65.20;;;;;;5062722;27;82097;-48
2021/08/28 08:29:07;;;;;;;;;;;21.20;65.20;;;;;;5060712;27;82934;-50
2021/08/28 08:31:33;;;;;;;;;;;21.20;65.20;;;;;;5064346;27;82411;-48
2021/08/28 08:33:59;;;;;;;;;;;21.20;65.30;;;;;;5064289;27;84624;-49
2021/08/28 08:36:24;;;;;;;;;;;21.20;65.20;;;;;;5063842;27;82109;-49
2021/08/28 08:38:50;;;;;;;;;;;21.20;65.20;;;;;;5062924;27;84077;-49
2021/08/28 08:41:16;;;;;;;;;;;21.20;65.20;;;;;;5063458;27;83961;-49
2021/08/28 08:43:42;;;;;;;;;;;21.20;65.20;;;;;;5064000;27;82100;-48
2021/08/28 08:46:08;;;;;;;;;;;21.20;65.20;;;;;;5062763;27;82675;-48
2021/08/28 08:48:35;;;;;;;;;;;21.20;65.30;;;;;;5064410;27;83990;-48
2021/08/28 08:51:01;;;;;;;;;;;21.20;65.30;;;;;;5061452;27;82416;-48
2021/08/28 08:53:28;;;;;;;;;;;21.20;65.20;;;;;;5059408;27;82496;-50
2021/08/28 08:55:54;;;;;;;;;;;21.20;65.30;;;;;;5063966;27;82764;-48
2021/08/28 08:58:19;;;;;;;;;;;21.20;65.40;;;;;;5060065;27;83459;-49
2021/08/28 09:00:45;;;;;;;;;;;21.20;65.30;;;;;;5060865;27;83101;-48
2021/08/28 09:03:11;;;;;;;;;;;21.20;65.40;;;;;;5059373;27;83487;-49
2021/08/28 09:05:36;;;;;;;;;;;21.20;65.50;;;;;;5059267;27;85220;-48
2021/08/28 09:08:02;;;;;;;;;;;21.20;65.30;;;;;;5059114;27;83024;-48
2021/08/28 09:10:30;;;;;;;;;;;21.20;65.20;;;;;;5065509;27;83040;-48
2021/08/28 09:13:10;;;;;;;;;;;21.20;65.30;;;;;;5060444;27;83654;-48
2021/08/28 09:15:40;;;;;;;;;;;21.20;65.50;;;;;;5061511;27;82112;-48
2021/08/28 09:18:07;;;;;;;;;;;21.30;65.30;;;;;;5061212;27;82548;-49
2021/08/28 09:20:32;;;;;;;;;;;21.20;65.20;;;;;;5061079;27;84204;-50
2021/08/28 09:23:07;;;;;;;;;;;21.30;65.10;;;;;;5062274;27;82090;-49
2021/08/28 09:25:32;;;;;;;;;;;21.30;65.30;;;;;;5067117;27;82166;-49
2021/08/28 09:27:58;;;;;;;;;;;21.30;65.30;;;;;;5065215;27;83679;-48
2021/08/28 09:30:26;;;;;;;;;;;21.30;65.30;;;;;;5065055;27;82196;-50
2021/08/28 09:32:59;;;;;;;;;;;21.30;65.20;;;;;;5068226;27;84335;-49
2021/08/28 09:35:28;;;;;;;;;;;21.30;65.20;;;;;;5064806;27;82145;-48
2021/08/28 09:37:55;;;;;;;;;;;21.30;65.00;;;;;;5065569;27;83145;-48
2021/08/28 09:40:22;;;;;;;;;;;21.30;64.90;;;;;;5063781;27;83459;-49
2021/08/28 09:42:58;;;;;;;;;;;21.30;64.90;;;;;;5062482;27;82053;-49
2021/08/28 09:45:25;;;;;;;;;;;21.40;65.00;;;;;;5062989;27;83890;-49
2021/08/28 09:47:51;;;;;;;;;;;21.40;65.10;;;;;;5067129;27;84059;-49
2021/08/28 09:50:23;;;;;;;;;;;21.40;65.00;;;;;;5065427;27;82144;-50
2021/08/28 09:52:49;;;;;;;;;;;21.40;65.00;;;;;;5063145;27;83063;-49
2021/08/28 09:55:14;;;;;;;;;;;21.40;64.90;;;;;;5066646;27;83285;-48
2021/08/28 09:57:41;;;;;;;;;;;21.40;64.70;;;;;;5064345;27;82185;-50
2021/08/28 10:00:06;;;;;;;;;;;21.50;64.50;;;;;;5061906;27;85198;-48
2021/08/28 10:02:32;;;;;;;;;;;21.50;64.80;;;;;;5064709;27;83756;-47
2021/08/28 10:04:58;;;;;;;;;;;21.50;65.50;;;;;;5067254;27;82836;-47
2021/08/28 10:07:25;;;;;;;;;;;21.50;66.20;;;;;;5065437;27;83201;-48
2021/08/28 10:09:56;;;;;;;;;;;21.50;66.70;;;;;;5063188;27;81395;-49
2021/08/28 10:12:21;;;;;;;;;;;21.50;66.40;;;;;;5060605;27;82091;-56
2021/08/28 10:14:48;;;;;;;;;;;21.50;66.60;;;;;;5025532;28;84443;-50
2021/08/28 10:17:15;;;;;;;;;;;21.60;67.00;;;;;;5023522;28;83964;-54
2021/08/28 10:19:42;;;;;;;;;;;21.70;67.10;;;;;;5024327;28;85462;-49
2021/08/28 10:22:08;;;;;;;;;;;21.80;67.20;;;;;;5022170;28;82082;-56
2021/08/28 10:24:34;;;;;;;;;;;21.80;67.70;;;;;;5023049;28;82133;-51
2021/08/28 10:27:00;;;;;;;;;;;21.70;67.20;;;;;;5022457;28;83833;-50
2021/08/28 10:29:25;;;;;;;;;;;21.90;67.10;;;;;;5022228;28;82038;-51
2021/08/28 10:31:51;;;;;;;;;;;21.90;66.40;;;;;;5023358;28;82097;-48
2021/08/28 10:34:17;;;;;;;;;;;22.00;65.90;;;;;;5023960;28;82039;-50
2021/08/28 10:36:43;;;;;;;;;;;22.00;66.60;;;;;;5027602;28;82126;-52
2021/08/28 10:39:09;;;;;;;;;;;22.00;66.70;;;;;;5024136;28;82568;-47
2021/08/28 10:41:35;;;;;;;;;;;22.00;66.20;;;;;;5024664;28;83077;-47
2021/08/28 10:44:01;;;;;;;;;;;22.00;66.20;;;;;;5025103;28;83115;-47
2021/08/28 10:46:28;;;;;;;;;;;22.10;67.00;;;;;;5025304;28;82933;-45
2021/08/28 10:48:58;;;;;;;;;;;22.10;66.90;;;;;;5024909;28;82153;-45
2021/08/28 10:51:33;;;;;;;;;;;22.20;66.70;;;;;;5022226;28;83905;-49
2021/08/28 10:54:03;;;;;;;;;;;22.30;68.50;;;;;;5022146;28;83345;-46
2021/08/28 10:56:34;;;;;;;;;;;22.40;67.90;;;;;;5024152;28;82150;-45
2021/08/28 10:59:32;;;;;;;;;;;22.50;67.50;;;;;;5026662;28;81364;-45
2021/08/28 11:01:59;;;;;;;;;;;22.50;66.50;;;;;;5008996;28;82154;-46
2021/08/28 11:04:33;;;;;;;;;;;22.50;67.00;;;;;;5020982;28;83694;-46
2021/08/28 11:07:17;;;;;;;;;;;22.50;67.20;;;;;;5021585;28;85403;-46
2021/08/28 11:10:01;;;;;;;;;;;22.60;66.80;;;;;;5023784;28;82234;-45
2021/08/28 11:12:27;;;;;;;;;;;22.60;65.50;;;;;;5023261;28;82137;-46
2021/08/28 11:14:52;;;;;;;;;;;22.60;66.00;;;;;;5024076;28;84102;-48
2021/08/28 11:17:34;;;;;;;;;;;22.60;65.50;;;;;;5025447;28;82974;-46
2021/08/28 11:20:01;;;;;;;;;;;22.70;66.10;;;;;;5025150;28;82163;-48
2021/08/28 11:22:33;;;;;;;;;;;22.80;66.30;;;;;;5026776;28;84550;-52
2021/08/28 11:25:00;;;;;;;;;;;22.70;66.50;;;;;;5023841;28;82120;-51
2021/08/28 11:27:39;;;;;;;;;;;22.80;66.20;;;;;;5023034;28;84100;-50
2021/08/28 11:30:05;;;;;;;;;;;22.80;65.90;;;;;;5022209;28;82382;-49
2021/08/28 11:32:31;;;;;;;;;;;22.70;65.50;;;;;;5022778;28;84008;-49
2021/08/28 11:34:57;;;;;;;;;;;22.70;65.40;;;;;;5025084;28;83776;-49
2021/08/28 11:37:26;;;;;;;;;;;22.80;65.90;;;;;;5023971;28;82123;-48
2021/08/28 11:39:52;;;;;;;;;;;22.80;65.40;;;;;;5020825;28;82913;-50
2021/08/28 11:42:18;;;;;;;;;;;22.80;65.30;;;;;;5023848;28;84295;-48
2021/08/28 11:44:47;;;;;;;;;;;22.70;65.20;;;;;;5027216;28;82119;-48
2021/08/28 11:47:13;;;;;;;;;;;22.70;65.10;;;;;;5023122;28;83275;-47
2021/08/28 11:49:39;;;;;;;;;;;22.70;65.20;;;;;;5025242;28;81343;-48
2021/08/28 11:52:05;;;;;;;;;;;22.70;65.20;;;;;;5023665;28;83756;-48
2021/08/28 11:54:31;;;;;;;;;;;22.70;65.20;;;;;;5021932;28;84730;-48
2021/08/28 11:56:57;;;;;;;;;;;22.80;65.20;;;;;;5020048;28;83052;-49
2021/08/28 11:59:36;;;;;;;;;;;22.70;65.20;;;;;;5020604;28;86762;-48
2021/08/28 12:02:01;;;;;;;;;;;22.70;65.10;;;;;;5021250;28;83794;-49
2021/08/28 12:04:27;;;;;;;;;;;22.70;65.20;;;;;;5021691;28;82097;-48
2021/08/28 12:06:53;;;;;;;;;;;22.70;65.10;;;;;;5023130;28;82862;-47
2021/08/28 12:09:22;;;;;;;;;;;22.70;65.20;;;;;;5022629;28;83018;-49
2021/08/28 12:11:48;;;;;;;;;;;22.70;65.20;;;;;;5020624;28;82887;-50
2021/08/28 12:14:14;;;;;;;;;;;22.70;65.30;;;;;;5024571;28;82369;-49
2021/08/28 12:16:41;;;;;;;;;;;22.70;65.20;;;;;;5024433;28;82070;-49
2021/08/28 12:19:08;;;;;;;;;;;22.70;65.30;;;;;;5023953;28;83020;-49
2021/08/28 12:21:38;;;;;;;;;;;22.80;65.30;;;;;;5021496;28;85682;-49
2021/08/28 12:24:24;;;;;;;;;;;22.70;65.30;;;;;;5022887;28;82189;-49
2021/08/28 12:26:53;;;;;;;;;;;22.80;65.40;;;;;;5019916;28;83508;-49
2021/08/28 12:29:20;;;;;;;;;;;22.80;65.30;;;;;;5022537;28;82057;-49
2021/08/28 12:31:51;;;;;;;;;;;22.80;65.40;;;;;;5020938;28;82105;-48
2021/08/28 12:34:20;;;;;;;;;;;22.80;65.30;;;;;;5019638;28;83603;-48
2021/08/28 12:36:47;;;;;;;;;;;22.80;65.30;;;;;;5019891;28;82088;-48
2021/08/28 12:39:13;;;;;;;;;;;22.90;65.30;;;;;;5025096;28;81955;-48
2021/08/28 12:41:39;;;;;;;;;;;22.90;65.20;;;;;;5024130;28;83647;-49
2021/08/28 12:44:05;;;;;;;;;;;22.90;65.10;;;;;;5023007;28;82087;-49
2021/08/28 12:46:31;;;;;;;;;;;22.90;65.20;;;;;;5021232;28;83007;-48
2021/08/28 12:49:16;;;;;;;;;;;22.90;65.20;;;;;;5022223;28;82801;-48
2021/08/28 12:51:51;;;;;;;;;;;22.90;65.20;;;;;;5019662;28;84082;-49
2021/08/28 12:54:20;;;;;;;;;;;22.90;65.20;;;;;;5021203;28;82177;-50
2021/08/28 12:56:50;;;;;;;;;;;22.90;65.20;;;;;;5023106;28;82128;-49
2021/08/28 12:59:17;;;;;;;;;;;23.00;65.20;;;;;;5019030;28;82772;-48
2021/08/28 13:01:46;;;;;;;;;;;23.00;65.30;;;;;;5021595;28;83868;-48
2021/08/28 13:04:11;;;;;;;;;;;23.00;65.20;;;;;;5021760;28;81440;-48
2021/08/28 13:06:37;;;;;;;;;;;23.00;65.20;;;;;;5020746;28;82120;-48
2021/08/28 13:09:13;;;;;;;;;;;23.00;65.20;;;;;;5021112;28;83316;-49
2021/08/28 13:11:38;;;;;;;;;;;23.00;65.20;;;;;;5022252;28;83032;-48
2021/08/28 13:14:04;;;;;;;;;;;23.10;65.20;;;;;;5019806;28;82895;-49
2021/08/28 13:16:29;;;;;;;;;;;23.10;65.20;;;;;;5019671;28;82160;-49
2021/08/28 13:19:12;;;;;;;;;;;23.10;65.20;;;;;;5019610;28;82125;-48
2021/08/28 13:21:39;;;;;;;;;;;23.10;65.20;;;;;;5021709;28;84544;-48
2021/08/28 13:24:14;;;;;;;;;;;23.10;65.10;;;;;;5022748;28;82125;-47
2021/08/28 13:26:59;;;;;;;;;;;23.10;65.10;;;;;;5021415;28;84946;-49
2021/08/28 13:29:29;;;;;;;;;;;23.20;65.20;;;;;;5022921;28;83859;-49
2021/08/28 13:32:07;;;;;;;;;;;23.20;65.30;;;;;;5022456;28;82097;-49
2021/08/28 13:34:40;;;;;;;;;;;23.20;65.30;;;;;;5021262;28;83654;-49
2021/08/28 13:37:07;;;;;;;;;;;23.20;65.30;;;;;;5020810;28;83077;-48
2021/08/28 13:39:35;;;;;;;;;;;23.30;65.40;;;;;;5019755;28;84869;-49
2021/08/28 13:42:01;;;;;;;;;;;23.20;65.20;;;;;;5020430;28;86257;-49
2021/08/28 13:44:27;;;;;;;;;;;23.30;65.10;;;;;;5021797;28;82194;-48
2021/08/28 13:46:52;;;;;;;;;;;23.30;66.10;;;;;;5021583;28;82471;-49
2021/08/28 13:49:18;;;;;;;;;;;23.30;66.30;;;;;;5022483;28;83059;-48
2021/08/28 13:51:43;;;;;;;;;;;23.40;66.00;;;;;;5020778;28;82105;-48
2021/08/28 13:54:09;;;;;;;;;;;23.50;65.50;;;;;;5022045;28;82444;-48
2021/08/28 13:56:34;;;;;;;;;;;23.50;65.30;;;;;;5023175;28;83561;-50
2021/08/28 13:59:00;;;;;;;;;;;23.40;65.20;;;;;;5020199;28;82171;-48
2021/08/28 14:01:25;;;;;;;;;;;23.40;65.10;;;;;;5018567;28;84035;-48
2021/08/28 14:03:51;;;;;;;;;;;23.50;65.10;;;;;;5019275;28;82111;-48
2021/08/28 14:06:16;;;;;;;;;;;23.50;65.10;;;;;;5019585;28;82043;-48
2021/08/28 14:08:42;;;;;;;;;;;23.40;65.80;;;;;;5020307;28;83628;-48
2021/08/28 14:11:07;;;;;;;;;;;23.50;65.70;;;;;;5024653;28;82068;-48
2021/08/28 14:13:33;;;;;;;;;;;23.50;66.10;;;;;;5025290;28;82220;-48
2021/08/28 14:15:58;;;;;;;;;;;23.60;65.40;;;;;;5025501;28;82758;-47